Time,TemperatureF,DewpointF,PressureIn,WindDirection,WindDirectionDegrees,WindSpeedMPH,WindSpeedGustMPH,Humidity,HourlyPrecipIn,Conditions,Clouds,dailyrainin,SoftwareType,DateUTC
2013-07-22 00:02:00,66.4,64.0,30.02,East,96,0.0,0.0,92,0.00,,,0.00,weatherlink.com 1.10,2013-07-22 04:02:00,
2013-07-22 00:17:00,66.1,64.0,30.02,East,96,0.0,0.0,93,0.00,,,0.00,weatherlink.com 1.10,2013-07-22 04:17:00,
2013-07-22 00:32:00,65.9,64.0,30.02,East,96,0.0,0.0,93,0.00,,,0.00,weatherlink.com 1.10,2013-07-22 04:32:00,
2013-07-22 00:47:00,65.4,64.0,30.02,East,96,0.0,0.0,94,0.00,,,0.00,weatherlink.com 1.10,2013-07-22 04:47:00,
2013-07-22 01:02:00,64.9,63.0,30.01,East,96,0.0,0.0,94,0.00,,,0.00,weatherlink.com 1.10,2013-07-22 05:02:00,
2013-07-22 01:17:00,64.8,63.0,30.00,East,96,0.0,0.0,95,0.00,,,0.00,weatherlink.com 1.10,2013-07-22 05:17:00,
2013-07-22 01:32:00,64.5,63.0,30.00,East,96,0.0,1.0,95,0.00,,,0.00,weatherlink.com 1.10,2013-07-22 05:32:00,
2013-07-22 01:47:00,64.3,63.0,30.01,East,96,0.0,0.0,96,0.00,,,0.00,weatherlink.com 1.10,2013-07-22 05:47:00,
2013-07-22 02:02:00,64.6,64.0,30.01,East,96,0.0,1.0,96,0.00,,,0.00,weatherlink.com 1.10,2013-07-22 06:02:00,
2013-07-22 02:17:00,64.5,63.0,30.01,East,96,0.0,0.0,96,0.00,,,0.00,weatherlink.com 1.10,2013-07-22 06:17:00,
2013-07-22 02:32:00,64.0,63.0,30.01,East,96,0.0,0.0,96,0.00,,,0.00,weatherlink.com 1.10,2013-07-22 06:32:00,
2013-07-22 02:47:00,63.8,63.0,30.00,East,96,0.0,5.0,96,0.00,,,0.00,weatherlink.com 1.10,2013-07-22 06:47:00,
2013-07-22 03:02:00,63.6,63.0,30.01,ESE,112,0.0,7.0,97,0.00,,,0.00,weatherlink.com 1.10,2013-07-22 07:02:00,
2013-07-22 03:17:00,63.9,63.0,30.01,East,90,0.0,7.0,97,0.00,,,0.00,weatherlink.com 1.10,2013-07-22 07:17:00,
2013-07-22 03:32:00,63.9,63.0,30.00,East,79,0.0,7.0,97,0.00,,,0.00,weatherlink.com 1.10,2013-07-22 07:32:00,
2013-07-22 03:47:00,63.8,63.0,30.00,East,80,0.0,2.0,97,0.00,,,0.00,weatherlink.com 1.10,2013-07-22 07:47:00,
2013-07-22 04:02:00,63.5,63.0,30.01,East,82,0.0,3.0,97,0.00,,,0.00,weatherlink.com 1.10,2013-07-22 08:02:00,
2013-07-22 04:17:00,63.0,62.0,30.00,East,90,0.0,1.0,97,0.00,,,0.00,weatherlink.com 1.10,2013-07-22 08:17:00,
2013-07-22 04:33:00,62.9,62.0,30.00,NE,52,0.0,3.0,97,0.00,,,0.00,weatherlink.com 1.10,2013-07-22 08:33:00,
2013-07-22 04:48:00,62.9,62.0,30.01,ESE,111,0.0,3.0,98,0.00,,,0.00,weatherlink.com 1.10,2013-07-22 08:48:00,
2013-07-22 05:03:00,63.0,63.0,30.01,East,92,0.0,6.0,98,0.00,,,0.00,weatherlink.com 1.10,2013-07-22 09:03:00,
2013-07-22 05:18:00,63.0,63.0,30.01,SE,134,0.0,3.0,98,0.00,,,0.00,weatherlink.com 1.10,2013-07-22 09:18:00,
2013-07-22 05:33:00,62.7,62.0,30.02,NE,47,0.0,3.0,98,0.00,,,0.00,weatherlink.com 1.10,2013-07-22 09:33:00,
2013-07-22 05:48:00,62.3,62.0,30.02,NE,51,0.0,4.0,97,0.00,,,0.00,weatherlink.com 1.10,2013-07-22 09:48:00,
2013-07-22 06:03:00,62.3,62.0,30.02,East,88,0.0,4.0,98,0.00,,,0.00,weatherlink.com 1.10,2013-07-22 10:03:00,
2013-07-22 06:18:00,62.5,62.0,30.02,East,88,3.0,5.0,98,0.00,,,0.00,weatherlink.com 1.10,2013-07-22 10:18:00,
2013-07-22 06:33:00,62.5,62.0,30.02,ENE,69,0.0,8.0,98,0.00,,,0.00,weatherlink.com 1.10,2013-07-22 10:33:00,
2013-07-22 06:48:00,62.4,62.0,30.03,NE,51,0.0,9.0,98,0.00,,,0.00,weatherlink.com 1.10,2013-07-22 10:48:00,
2013-07-22 07:03:00,62.2,62.0,30.03,ESE,113,0.0,9.0,98,0.00,,,0.00,weatherlink.com 1.10,2013-07-22 11:03:00,
2013-07-22 07:18:00,62.2,62.0,30.03,ENE,65,0.0,4.0,98,0.00,,,0.00,weatherlink.com 1.10,2013-07-22 11:18:00,
2013-07-22 07:33:00,62.4,62.0,30.03,NE,52,0.0,4.0,98,0.00,,,0.00,weatherlink.com 1.10,2013-07-22 11:33:00,
2013-07-22 07:48:00,62.4,62.0,30.04,SE,126,1.0,4.0,98,0.00,,,0.00,weatherlink.com 1.10,2013-07-22 11:48:00,
2013-07-22 08:03:00,62.8,62.0,30.04,East,79,0.0,5.0,98,0.00,,,0.00,weatherlink.com 1.10,2013-07-22 12:03:00,
2013-07-22 08:18:00,63.0,63.0,30.04,East,79,0.0,3.0,98,0.00,,,0.00,weatherlink.com 1.10,2013-07-22 12:18:00,
2013-07-22 08:33:00,63.0,63.0,30.04,East,79,0.0,1.0,98,0.00,,,0.00,weatherlink.com 1.10,2013-07-22 12:33:00,
2013-07-22 08:48:00,63.1,63.0,30.04,East,84,1.0,4.0,98,0.00,,,0.00,weatherlink.com 1.10,2013-07-22 12:48:00,
2013-07-22 09:03:00,63.4,63.0,30.04,East,85,1.0,3.0,98,0.00,,,0.00,weatherlink.com 1.10,2013-07-22 13:03:00,
2013-07-22 09:18:00,63.4,63.0,30.04,NE,46,0.0,3.0,98,0.00,,,0.00,weatherlink.com 1.10,2013-07-22 13:18:00,
2013-07-22 09:33:00,63.6,63.0,30.05,East,81,0.0,3.0,98,0.00,,,0.00,weatherlink.com 1.10,2013-07-22 13:33:00,
2013-07-22 09:48:00,63.8,63.0,30.05,ENE,77,0.0,4.0,98,0.00,,,0.00,weatherlink.com 1.10,2013-07-22 13:48:00,
2013-07-22 10:03:00,64.2,64.0,30.05,ENE,76,0.0,1.0,98,0.00,,,0.00,weatherlink.com 1.10,2013-07-22 14:03:00,
2013-07-22 10:18:00,64.7,64.0,30.05,East,98,0.0,3.0,97,0.01,,,0.01,weatherlink.com 1.10,2013-07-22 14:18:00,
2013-07-22 10:33:00,64.7,64.0,30.06,ENE,70,0.0,1.0,97,0.01,,,0.01,weatherlink.com 1.10,2013-07-22 14:33:00,
2013-07-22 10:48:00,64.7,64.0,30.05,East,86,1.0,2.0,97,0.03,,,0.03,weatherlink.com 1.10,2013-07-22 14:48:00,
2013-07-22 11:03:00,64.5,64.0,30.05,East,95,0.0,8.0,97,0.08,,,0.08,weatherlink.com 1.10,2013-07-22 15:03:00,
2013-07-22 11:18:00,64.2,63.0,30.05,ENE,73,1.0,8.0,97,0.14,,,0.15,weatherlink.com 1.10,2013-07-22 15:18:00,
2013-07-22 11:33:00,64.2,63.0,30.05,East,94,0.0,3.0,97,0.22,,,0.23,weatherlink.com 1.10,2013-07-22 15:33:00,
2013-07-22 11:48:00,64.1,63.0,30.05,East,94,0.0,8.0,97,0.30,,,0.33,weatherlink.com 1.10,2013-07-22 15:48:00,
2013-07-22 12:03:00,64.3,64.0,30.05,East,98,0.0,5.0,98,0.26,,,0.34,weatherlink.com 1.10,2013-07-22 16:03:00,
2013-07-22 12:18:00,64.6,64.0,30.04,East,99,3.0,7.0,98,0.23,,,0.38,weatherlink.com 1.10,2013-07-22 16:18:00,
2013-07-22 12:33:00,64.5,64.0,30.03,NE,51,4.0,8.0,98,0.15,,,0.38,weatherlink.com 1.10,2013-07-22 16:33:00,
2013-07-22 12:48:00,64.8,64.0,30.03,ENE,67,1.0,5.0,98,0.05,,,0.38,weatherlink.com 1.10,2013-07-22 16:48:00,
2013-07-22 13:03:00,65.2,65.0,30.03,ENE,76,0.0,4.0,98,0.04,,,0.38,weatherlink.com 1.10,2013-07-22 17:03:00,
2013-07-22 13:18:00,65.5,65.0,30.03,NE,49,0.0,9.0,98,0.00,,,0.38,weatherlink.com 1.10,2013-07-22 17:18:00,
2013-07-22 13:33:00,65.8,65.0,30.02,East,85,1.0,7.0,98,0.00,,,0.38,weatherlink.com 1.10,2013-07-22 17:33:00,
2013-07-22 13:48:00,66.0,66.0,30.02,East,101,0.0,5.0,98,0.00,,,0.38,weatherlink.com 1.10,2013-07-22 17:48:00,
2013-07-22 14:33:00,66.9,66.0,30.01,East,98,0.0,3.0,98,0.00,,,0.38,weatherlink.com 1.10,2013-07-22 18:33:00,
2013-07-22 14:48:00,67.4,67.0,30.01,East,84,0.0,1.0,98,0.00,,,0.38,weatherlink.com 1.10,2013-07-22 18:48:00,
2013-07-22 15:03:00,67.8,67.0,30.01,East,84,0.0,3.0,97,0.00,,,0.38,weatherlink.com 1.10,2013-07-22 19:03:00,
2013-07-22 15:18:00,68.2,67.0,30.00,SE,124,0.0,3.0,96,0.00,,,0.38,weatherlink.com 1.10,2013-07-22 19:18:00,
2013-07-22 15:48:00,68.6,67.0,30.00,East,96,5.0,5.0,95,0.00,,,0.38,weatherlink.com 1.10,2013-07-22 19:48:00,
2013-07-22 16:03:00,68.4,67.0,30.00,ESE,103,0.0,1.0,94,0.00,,,0.38,weatherlink.com 1.10,2013-07-22 20:03:00,
2013-07-22 16:18:00,68.1,66.0,30.00,SE,133,0.0,5.0,94,0.00,,,0.38,weatherlink.com 1.10,2013-07-22 20:18:00,
2013-07-22 16:33:00,68.4,67.0,29.99,East,84,0.0,5.0,95,0.00,,,0.38,weatherlink.com 1.10,2013-07-22 20:33:00,
2013-07-22 16:48:00,70.4,68.0,29.99,ESE,109,1.0,3.0,93,0.00,,,0.38,weatherlink.com 1.10,2013-07-22 20:48:00,
2013-07-22 17:04:00,71.9,68.0,29.98,East,86,0.0,4.0,88,0.00,,,0.38,weatherlink.com 1.10,2013-07-22 21:04:00,
2013-07-22 17:19:00,71.6,68.0,29.98,East,84,0.0,6.0,89,0.00,,,0.38,weatherlink.com 1.10,2013-07-22 21:19:00,
2013-07-22 17:34:00,71.9,68.0,29.97,ESE,112,0.0,6.0,87,0.00,,,0.38,weatherlink.com 1.10,2013-07-22 21:34:00,
2013-07-22 17:49:00,72.0,68.0,29.97,East,91,0.0,6.0,87,0.00,,,0.38,weatherlink.com 1.10,2013-07-22 21:49:00,
2013-07-22 18:04:00,72.2,68.0,29.96,East,86,0.0,8.0,86,0.00,,,0.38,weatherlink.com 1.10,2013-07-22 22:04:00,
2013-07-22 18:19:00,71.0,68.0,29.96,ENE,67,0.0,5.0,89,0.00,,,0.38,weatherlink.com 1.10,2013-07-22 22:19:00,
2013-07-22 18:34:00,71.1,68.0,29.96,East,90,0.0,5.0,89,0.00,,,0.38,weatherlink.com 1.10,2013-07-22 22:34:00,
2013-07-22 18:49:00,72.1,68.0,29.96,ESE,121,0.0,3.0,88,0.00,,,0.38,weatherlink.com 1.10,2013-07-22 22:49:00,
2013-07-22 19:04:00,73.0,68.0,29.96,East,82,0.0,5.0,85,0.00,,,0.38,weatherlink.com 1.10,2013-07-22 23:04:00,
2013-07-22 19:19:00,72.2,68.0,29.96,NE,49,0.0,5.0,85,0.00,,,0.38,weatherlink.com 1.10,2013-07-22 23:19:00,
2013-07-22 19:34:00,70.9,67.0,29.97,ESE,103,0.0,7.0,87,0.00,,,0.38,weatherlink.com 1.10,2013-07-22 23:34:00,
2013-07-22 19:49:00,69.5,66.0,29.96,East,83,0.0,9.0,89,0.00,,,0.38,weatherlink.com 1.10,2013-07-22 23:49:00,
2013-07-22 20:04:00,68.3,66.0,29.95,East,95,0.0,6.0,91,0.00,,,0.38,weatherlink.com 1.10,2013-07-23 00:04:00,
2013-07-22 20:19:00,67.4,65.0,29.95,ESE,109,2.0,7.0,93,0.00,,,0.38,weatherlink.com 1.10,2013-07-23 00:19:00,
2013-07-22 20:34:00,66.7,65.0,29.95,SE,130,0.0,6.0,94,0.00,,,0.38,weatherlink.com 1.10,2013-07-23 00:34:00,
2013-07-22 20:49:00,66.2,65.0,29.96,SSE,157,0.0,3.0,94,0.00,,,0.38,weatherlink.com 1.10,2013-07-23 00:49:00,
2013-07-22 21:04:00,65.5,64.0,29.96,ENE,64,2.0,7.0,94,0.00,,,0.38,weatherlink.com 1.10,2013-07-23 01:04:00,
2013-07-22 21:19:00,65.1,63.0,29.96,ESE,105,0.0,3.0,94,0.00,,,0.38,weatherlink.com 1.10,2013-07-23 01:19:00,
2013-07-22 21:34:00,64.6,63.0,29.96,ESE,119,1.0,6.0,94,0.00,,,0.38,weatherlink.com 1.10,2013-07-23 01:34:00,
2013-07-22 21:49:00,64.2,63.0,29.96,East,84,0.0,7.0,94,0.00,,,0.38,weatherlink.com 1.10,2013-07-23 01:49:00,
2013-07-22 22:04:00,64.0,62.0,29.96,ENE,59,0.0,5.0,94,0.00,,,0.38,weatherlink.com 1.10,2013-07-23 02:04:00,
2013-07-22 22:19:00,63.7,62.0,29.95,ENE,70,2.0,9.0,94,0.00,,,0.38,weatherlink.com 1.10,2013-07-23 02:19:00,
2013-07-22 22:34:00,63.4,62.0,29.95,East,90,5.0,9.0,94,0.00,,,0.38,weatherlink.com 1.10,2013-07-23 02:34:00,
2013-07-22 22:49:00,63.1,61.0,29.95,South,177,0.0,7.0,94,0.00,,,0.38,weatherlink.com 1.10,2013-07-23 02:49:00,
2013-07-22 23:04:00,62.6,59.0,29.95,East,92,2.0,6.0,87,0.00,,,0.38,weatherlink.com 1.10,2013-07-23 03:04:00,
2013-07-22 23:19:00,62.3,59.0,29.94,East,92,5.0,11.0,88,0.00,,,0.38,weatherlink.com 1.10,2013-07-23 03:19:00,
2013-07-22 23:34:00,62.2,60.0,29.94,ENE,72,5.0,7.0,92,0.00,,,0.38,weatherlink.com 1.10,2013-07-23 03:34:00,
2013-07-22 23:49:00,62.0,60.0,29.94,ESE,116,0.0,3.0,94,0.00,,,0.38,weatherlink.com 1.10,2013-07-23 03:49:00,